createdAt,value
2022-09-11T00:02:16.929Z,100909.31
2022-09-11T00:04:40.475Z,100909.81
2022-09-11T00:07:04.102Z,100901.78
2022-09-11T00:09:27.715Z,100908.75
2022-09-11T00:11:51.811Z,100908.44
2022-09-11T00:14:15.959Z,100914.00
2022-09-11T00:16:44.897Z,100916.25
2022-09-11T00:19:11.805Z,100920.97
2022-09-11T00:21:35.894Z,100910.69
2022-09-11T00:24:00.109Z,100917.59
2022-09-11T00:26:24.791Z,100911.53
2022-09-11T00:28:50.565Z,100912.38
2022-09-11T00:31:17.686Z,100917.59
2022-09-11T00:33:43.323Z,100900.06
2022-09-11T00:36:10.086Z,100907.19
2022-09-11T00:38:37.250Z,100910.59
2022-09-11T00:41:02.675Z,100902.88
2022-09-11T00:43:27.319Z,100910.91
2022-09-11T00:45:57.728Z,100905.69
2022-09-11T00:48:25.891Z,100910.50
2022-09-11T00:50:52.235Z,100907.47
2022-09-11T00:53:18.828Z,100909.34
2022-09-11T00:55:50.736Z,100908.09
2022-09-11T00:58:19.569Z,100912.34
2022-09-11T01:00:45.975Z,100911.97
2022-09-11T01:03:09.647Z,100914.53
2022-09-11T01:05:34.859Z,100924.28
2022-09-11T01:07:59.855Z,100917.78
2022-09-11T01:10:48.115Z,100917.22
2022-09-11T01:13:20.723Z,100916.94
2022-09-11T01:15:53.804Z,100922.66
2022-09-11T01:18:26.143Z,100921.31
2022-09-11T01:21:09.573Z,100925.19
2022-09-11T01:24:01.564Z,100914.75
2022-09-11T01:27:08.328Z,100919.03
2022-09-11T01:29:40.474Z,100914.41
2022-09-11T01:32:11.824Z,100918.38
2022-09-11T01:34:45.350Z,100909.47
2022-09-11T01:37:15.564Z,100917.22
2022-09-11T01:39:47.837Z,100916.59
2022-09-11T01:42:16.948Z,100917.97
2022-09-11T01:44:46.859Z,100924.00
2022-09-11T01:47:12.018Z,100920.44
2022-09-11T01:49:39.952Z,100925.69
2022-09-11T01:52:10.582Z,100923.94
2022-09-11T01:54:39.422Z,100923.53
2022-09-11T01:57:09.661Z,100924.97
2022-09-11T01:59:39.957Z,100929.13
2022-09-11T02:02:09.564Z,100922.09
2022-09-11T02:04:39.016Z,100924.34
2022-09-11T02:07:08.023Z,100934.31
2022-09-11T02:09:37.633Z,100918.06
2022-09-11T02:12:07.155Z,100919.75
2022-09-11T02:14:38.558Z,100927.34
2022-09-11T02:17:12.311Z,100918.84
2022-09-11T02:19:37.074Z,100922.84
2022-09-11T02:22:01.008Z,100935.38
2022-09-11T02:24:24.925Z,100926.41
2022-09-11T02:26:53.944Z,100936.19
2022-09-11T02:29:17.968Z,100933.63
2022-09-11T02:31:42.427Z,100932.22
2022-09-11T02:34:07.518Z,100942.41
2022-09-11T02:36:59.718Z,100936.00
2022-09-11T02:39:47.257Z,100942.00
2022-09-11T02:42:28.864Z,100935.22
2022-09-11T02:45:04.914Z,100929.81
2022-09-11T02:47:44.006Z,100943.13
2022-09-11T02:50:23.735Z,100939.78
2022-09-11T02:52:57.703Z,100945.16
2022-09-11T02:55:26.691Z,100941.44
2022-09-11T02:57:58.767Z,100952.00
2022-09-11T03:00:23.503Z,100952.50
2022-09-11T03:02:49.280Z,100964.69
2022-09-11T03:05:14.618Z,100963.47
2022-09-11T03:07:39.215Z,100968.88
2022-09-11T03:10:02.855Z,100958.22
2022-09-11T03:12:27.295Z,100969.00
2022-09-11T03:14:50.887Z,100969.72
2022-09-11T03:17:14.616Z,100972.56
2022-09-11T03:19:38.231Z,100985.50
2022-09-11T03:22:03.351Z,100976.69
2022-09-11T03:24:27.295Z,100979.81
2022-09-11T03:26:50.884Z,100982.09
2022-09-11T03:29:14.751Z,100979.22
2022-09-11T03:31:39.672Z,100988.34
2022-09-11T03:34:04.602Z,100988.34
2022-09-11T03:36:28.268Z,100990.47
2022-09-11T03:38:55.111Z,100992.22
2022-09-11T03:41:19.019Z,100995.03
2022-09-11T03:43:42.701Z,100990.31
2022-09-11T03:46:06.486Z,101000.28
2022-09-11T03:48:30.443Z,100997.13
2022-09-11T03:50:54.600Z,101004.50
2022-09-11T03:53:19.223Z,100998.94
2022-09-11T03:55:46.278Z,101007.19
2022-09-11T03:58:09.896Z,101003.91
2022-09-11T04:00:37.657Z,101006.69
2022-09-11T04:03:02.120Z,101007.59
2022-09-11T04:05:32.587Z,101010.94
2022-09-11T04:07:57.651Z,101007.50
2022-09-11T04:10:21.491Z,101025.13
2022-09-11T04:12:46.780Z,101019.38
2022-09-11T04:15:11.002Z,101015.50
2022-09-11T04:17:34.964Z,101019.16
2022-09-11T04:19:59.070Z,101015.63
2022-09-11T04:22:23.950Z,101015.13
2022-09-11T04:24:48.239Z,101016.66
2022-09-11T04:27:12.344Z,101016.94
2022-09-11T04:29:37.716Z,101018.25
2022-09-11T04:32:04.822Z,101019.22
2022-09-11T04:34:31.558Z,101019.88
2022-09-11T04:36:55.538Z,101017.72
2022-09-11T04:39:19.768Z,101016.88
2022-09-11T04:41:45.255Z,101016.31
2022-09-11T04:44:09.020Z,101020.13
2022-09-11T04:46:39.871Z,101024.78
2022-09-11T04:49:04.893Z,101022.53
2022-09-11T04:51:32.178Z,101022.06
2022-09-11T04:53:57.943Z,101018.41
2022-09-11T04:56:29.211Z,101018.19
2022-09-11T04:58:58.919Z,101030.81
2022-09-11T05:01:29.287Z,101026.25
2022-09-11T05:03:56.391Z,101018.19
2022-09-11T05:06:20.118Z,101018.72
2022-09-11T05:08:46.455Z,101024.63
2022-09-11T05:11:15.097Z,101024.69
2022-09-11T05:13:38.837Z,101022.69
2022-09-11T05:16:03.663Z,101027.66
2022-09-11T05:18:27.543Z,101031.84
2022-09-11T05:21:01.703Z,101034.53
2022-09-11T05:23:25.843Z,101032.03
2022-09-11T05:25:50.155Z,101040.03
2022-09-11T05:28:13.826Z,101044.50
2022-09-11T05:30:37.501Z,101046.63
2022-09-11T05:33:01.160Z,101061.06
2022-09-11T05:35:29.210Z,101053.91
2022-09-11T05:37:56.799Z,101060.47
2022-09-11T05:40:20.315Z,101061.84
2022-09-11T05:42:43.869Z,101075.25
2022-09-11T05:45:09.134Z,101071.06
2022-09-11T05:47:34.512Z,101077.66
2022-09-11T05:49:58.047Z,101079.63
2022-09-11T05:52:22.422Z,101081.47
2022-09-11T05:54:48.942Z,101096.00
2022-09-11T05:57:12.839Z,101089.22
2022-09-11T05:59:36.719Z,101092.56
2022-09-11T06:02:00.421Z,101096.25
2022-09-11T06:04:35.751Z,101103.66
2022-09-11T06:06:59.351Z,101108.44
2022-09-11T06:09:24.608Z,101110.91
2022-09-11T06:11:50.420Z,101108.34
2022-09-11T06:14:14.120Z,101115.25
2022-09-11T06:16:41.035Z,101118.19
2022-09-11T06:19:08.672Z,101116.16
2022-09-11T06:21:32.404Z,101121.84
2022-09-11T06:24:05.822Z,101119.13
2022-09-11T06:26:31.000Z,101125.25
2022-09-11T06:28:57.201Z,101129.81
2022-09-11T06:31:24.356Z,101128.13
2022-09-11T06:33:50.173Z,101134.31
2022-09-11T06:36:16.636Z,101133.22
2022-09-11T06:38:40.545Z,101140.25
2022-09-11T06:41:12.688Z,101146.19
2022-09-11T06:43:36.527Z,101138.72
2022-09-11T06:46:07.189Z,101144.84
2022-09-11T06:48:31.878Z,101143.53
2022-09-11T06:50:55.655Z,101146.00
2022-09-11T06:53:19.219Z,101149.47
2022-09-11T06:55:48.805Z,101150.34
2022-09-11T06:58:13.689Z,101143.66
2022-09-11T07:00:38.104Z,101149.81
2022-09-11T07:03:03.257Z,101146.69
2022-09-11T07:05:27.535Z,101146.06
2022-09-11T07:07:54.252Z,101145.47
2022-09-11T07:10:18.180Z,101145.69
2022-09-11T07:12:46.125Z,101140.88
2022-09-11T07:15:12.007Z,101144.13
2022-09-11T07:17:36.446Z,101146.16
2022-09-11T07:20:02.166Z,101144.13
2022-09-11T07:22:26.571Z,101145.63
2022-09-11T07:24:54.964Z,101148.94
2022-09-11T07:27:19.402Z,101143.16
2022-09-11T07:29:44.190Z,101145.75
2022-09-11T07:32:07.921Z,101142.28
2022-09-11T07:34:31.902Z,101144.19
2022-09-11T07:37:01.637Z,101145.44
2022-09-11T07:39:25.360Z,101143.09
2022-09-11T07:42:03.075Z,101156.78
2022-09-11T07:44:29.508Z,101150.88
2022-09-11T07:46:54.215Z,101154.19
2022-09-11T07:49:17.859Z,101152.84
2022-09-11T07:51:41.539Z,101151.03
2022-09-11T07:54:08.158Z,101150.41
2022-09-11T07:56:36.363Z,101147.97
2022-09-11T07:59:02.650Z,101156.94
2022-09-11T08:01:30.515Z,101165.06
2022-09-11T08:03:58.346Z,101168.16
2022-09-11T08:06:24.375Z,101170.19
2022-09-11T08:08:54.760Z,101169.63
2022-09-11T08:11:20.932Z,101171.91
2022-09-11T08:13:50.838Z,101175.66
2022-09-11T08:16:16.665Z,101172.59
2022-09-11T08:18:40.255Z,101175.38
2022-09-11T08:21:05.224Z,101170.09
2022-09-11T08:23:31.213Z,101173.94
2022-09-11T08:25:57.360Z,101184.28
2022-09-11T08:28:22.387Z,101179.88
2022-09-11T08:30:45.976Z,101190.72
2022-09-11T08:33:09.730Z,101190.56
2022-09-11T08:35:35.519Z,101192.13
2022-09-11T08:38:00.120Z,101197.91
2022-09-11T08:40:24.294Z,101192.63
2022-09-11T08:42:49.075Z,101190.22
2022-09-11T08:45:18.286Z,101198.41
2022-09-11T08:47:42.823Z,101194.81
2022-09-11T08:50:13.567Z,101193.81
2022-09-11T08:52:37.969Z,101196.63
2022-09-11T08:55:06.878Z,101198.75
2022-09-11T08:57:45.727Z,101200.59
2022-09-11T09:00:21.130Z,101195.34
2022-09-11T09:03:39.324Z,101188.00
2022-09-11T09:06:24.740Z,101191.38
2022-09-11T09:09:00.709Z,101185.94
2022-09-11T09:11:36.289Z,101186.84
2022-09-11T09:14:34.251Z,101194.44
2022-09-11T09:17:04.137Z,101194.31
2022-09-11T09:19:36.409Z,101199.41
2022-09-11T09:22:10.965Z,101193.50
2022-09-11T09:24:42.593Z,101197.19
2022-09-11T09:27:10.453Z,101201.25
2022-09-11T09:29:40.576Z,101199.66
2022-09-11T09:32:17.119Z,101202.50
2022-09-11T09:34:45.916Z,101211.63
2022-09-11T09:37:20.364Z,101210.72
2022-09-11T09:39:44.756Z,101207.00
2022-09-11T09:43:06.499Z,101208.75
2022-09-11T09:45:52.034Z,101206.41
2022-09-11T09:48:17.546Z,101211.25
2022-09-11T09:50:43.965Z,101205.94
2022-09-11T09:53:17.267Z,101213.47
2022-09-11T09:55:42.434Z,101212.94
2022-09-11T09:58:07.211Z,101218.34
2022-09-11T10:00:32.757Z,101215.50
2022-09-11T10:02:58.162Z,101215.97
2022-09-11T10:05:28.513Z,101228.75
2022-09-11T10:07:54.834Z,101223.66
2022-09-11T10:10:40.624Z,101226.00
2022-09-11T10:13:19.079Z,101224.44
2022-09-11T10:15:43.386Z,101229.00
2022-09-11T10:18:40.183Z,101230.03
2022-09-11T10:21:29.419Z,101222.84
2022-09-11T10:23:56.023Z,101226.34
2022-09-11T10:26:27.181Z,101221.44
2022-09-11T10:28:51.202Z,101216.38
2022-09-11T10:31:17.607Z,101223.34
2022-09-11T10:33:46.659Z,101232.88
2022-09-11T10:36:11.784Z,101231.28
2022-09-11T10:38:47.992Z,101229.13
2022-09-11T10:41:19.289Z,101236.75
2022-09-11T10:43:49.207Z,101243.97
2022-09-11T10:46:39.906Z,101240.22
2022-09-11T10:49:17.597Z,101236.94
2022-09-11T10:51:47.385Z,101228.72
2022-09-11T10:54:32.727Z,101243.41
2022-09-11T10:57:06.127Z,101246.81
2022-09-11T10:59:39.485Z,101240.03
2022-09-11T11:02:03.521Z,101232.75
2022-09-11T11:04:30.615Z,101229.31
2022-09-11T11:07:09.927Z,101234.88
2022-09-11T11:09:54.439Z,101228.66
2022-09-11T11:12:41.426Z,101232.13
2022-09-11T11:15:32.121Z,101239.63
2022-09-11T11:18:24.098Z,101239.13
2022-09-11T11:20:56.339Z,101238.56
2022-09-11T11:23:47.031Z,101229.69
2022-09-11T11:26:33.075Z,101229.41
2022-09-11T11:29:29.776Z,101229.56
2022-09-11T11:32:11.667Z,101224.69
2022-09-11T11:35:01.512Z,101229.38
2022-09-11T11:37:32.539Z,101225.50
2022-09-11T11:40:03.527Z,101223.22
2022-09-11T11:42:34.969Z,101232.81
2022-09-11T11:45:03.885Z,101227.94
2022-09-11T11:47:32.843Z,101228.44
2022-09-11T11:50:03.318Z,101216.75
2022-09-11T11:52:41.914Z,101221.31
2022-09-11T11:55:18.063Z,101231.69
2022-09-11T11:57:49.431Z,101236.44
2022-09-11T12:00:17.517Z,101234.38
2022-09-11T12:02:49.509Z,101235.44
2022-09-11T12:05:18.366Z,101230.75
2022-09-11T12:07:42.432Z,101239.22
2022-09-11T12:10:18.788Z,101230.25
2022-09-11T12:12:50.374Z,101243.59
2022-09-11T12:15:23.302Z,101240.44
2022-09-11T12:17:49.404Z,101241.47
2022-09-11T12:20:36.203Z,101249.84
2022-09-11T12:23:01.806Z,101243.84
2022-09-11T12:26:06.346Z,101236.88
2022-09-11T12:28:31.294Z,101243.09
2022-09-11T12:31:06.155Z,101245.34
2022-09-11T12:33:56.268Z,101257.34
2022-09-11T12:36:30.076Z,101250.75
2022-09-11T12:38:58.131Z,101252.44
2022-09-11T12:41:30.140Z,101242.53
2022-09-11T12:43:55.835Z,101245.13
2022-09-11T12:47:14.598Z,101251.84
2022-09-11T12:49:39.392Z,101249.44
2022-09-11T12:52:03.423Z,101256.00
2022-09-11T12:54:32.007Z,101248.59
2022-09-11T12:57:03.386Z,101247.16
2022-09-11T12:59:34.164Z,101248.97
2022-09-11T13:01:58.646Z,101240.34
2022-09-11T13:04:26.375Z,101239.28
2022-09-11T13:06:54.884Z,101240.03
2022-09-11T13:09:23.466Z,101239.72
2022-09-11T13:11:49.882Z,101241.31
2022-09-11T13:14:52.943Z,101231.16
2022-09-11T13:17:30.267Z,101232.47
2022-09-11T13:19:58.595Z,101237.97
2022-09-11T13:22:25.708Z,101241.16
2022-09-11T13:24:51.970Z,101241.56
2022-09-11T13:27:23.863Z,101245.41
2022-09-11T13:29:49.615Z,101240.63
2022-09-11T13:32:17.798Z,101244.00
2022-09-11T13:34:46.611Z,101247.72
2022-09-11T13:37:14.038Z,101250.50
2022-09-11T13:39:41.606Z,101242.97
2022-09-11T13:42:05.558Z,101239.81
2022-09-11T13:44:38.034Z,101246.38
2022-09-11T13:47:06.395Z,101242.72
2022-09-11T13:49:36.339Z,101238.22
2022-09-11T13:52:00.627Z,101239.78
2022-09-11T13:54:30.786Z,101232.13
2022-09-11T13:57:14.878Z,101235.44
2022-09-11T13:59:43.016Z,101241.22
2022-09-11T14:02:20.793Z,101238.06
2022-09-11T14:04:46.356Z,101230.06
2022-09-11T14:07:22.563Z,101235.03
2022-09-11T14:09:52.487Z,101223.91
2022-09-11T14:12:16.527Z,101223.41
2022-09-11T14:14:42.902Z,101218.75
2022-09-11T14:17:11.058Z,101224.38
2022-09-11T14:19:37.860Z,101215.94
2022-09-11T14:22:15.306Z,101218.53
2022-09-11T14:24:39.174Z,101217.16
2022-09-11T14:27:04.378Z,101219.53
2022-09-11T14:29:31.506Z,101227.63
2022-09-11T14:31:56.734Z,101224.22
2022-09-11T14:34:23.247Z,101226.81
2022-09-11T14:36:52.723Z,101225.13
2022-09-11T14:39:24.500Z,101229.38
2022-09-11T14:41:48.125Z,101226.97
2022-09-11T14:44:15.989Z,101226.56
2022-09-11T14:46:39.864Z,101222.75
2022-09-11T14:49:03.446Z,101224.94
2022-09-11T14:51:28.986Z,101233.72
2022-09-11T14:53:52.503Z,101228.38
2022-09-11T14:56:16.078Z,101224.69
2022-09-11T14:58:39.750Z,101225.59
2022-09-11T15:01:03.466Z,101230.63
2022-09-11T15:03:27.107Z,101237.94
2022-09-11T15:05:56.607Z,101238.53
2022-09-11T15:08:21.535Z,101244.44
2022-09-11T15:10:46.471Z,101232.34
2022-09-11T15:13:10.265Z,101242.16
2022-09-11T15:15:35.084Z,101238.69
2022-09-11T15:17:58.601Z,101238.38
2022-09-11T15:20:24.442Z,101237.19
2022-09-11T15:22:48.587Z,101248.25
2022-09-11T15:25:13.753Z,101245.53
2022-09-11T15:27:37.342Z,101241.28
2022-09-11T15:30:01.327Z,101230.16
2022-09-11T15:32:25.070Z,101238.81
2022-09-11T15:34:48.784Z,101235.69
2022-09-11T15:37:12.879Z,101245.38
2022-09-11T15:39:36.479Z,101247.59
2022-09-11T15:42:01.804Z,101242.91
2022-09-11T15:44:28.761Z,101233.00
2022-09-11T15:46:54.946Z,101243.28
2022-09-11T15:49:18.668Z,101236.91
2022-09-11T15:51:42.325Z,101236.84
2022-09-11T15:54:06.174Z,101242.06
2022-09-11T15:56:30.533Z,101239.66
2022-09-11T15:58:57.961Z,101245.25
2022-09-11T16:01:24.058Z,101242.75
2022-09-11T16:03:51.880Z,101247.56
2022-09-11T16:06:15.418Z,101245.69
2022-09-11T16:08:39.782Z,101249.88
2022-09-11T16:11:05.880Z,101249.25
2022-09-11T16:13:29.436Z,101247.56
2022-09-11T16:16:04.112Z,101244.97
2022-09-11T16:18:27.727Z,101241.88
2022-09-11T16:20:58.081Z,101237.03
2022-09-11T16:23:21.952Z,101236.78
2022-09-11T16:25:45.492Z,101238.03
2022-09-11T16:28:09.740Z,101241.03
2022-09-11T16:30:43.233Z,101236.88
2022-09-11T16:33:12.571Z,101244.75
2022-09-11T16:35:36.321Z,101239.78
2022-09-11T16:38:00.800Z,101237.75
2022-09-11T16:40:24.378Z,101241.47
2022-09-11T16:42:47.979Z,101237.19
2022-09-11T16:45:12.079Z,101234.88
2022-09-11T16:47:35.711Z,101237.59
2022-09-11T16:50:08.655Z,101233.38
2022-09-11T16:52:33.062Z,101232.03
2022-09-11T16:54:56.583Z,101238.34
2022-09-11T16:57:20.179Z,101238.41
2022-09-11T16:59:43.779Z,101230.78
2022-09-11T17:02:07.594Z,101235.75
2022-09-11T17:04:31.242Z,101241.34
2022-09-11T17:06:56.646Z,101246.19
2022-09-11T17:09:20.176Z,101249.44
2022-09-11T17:11:44.738Z,101251.44
2022-09-11T17:14:08.290Z,101254.53
2022-09-11T17:16:35.651Z,101257.94
2022-09-11T17:19:01.671Z,101253.69
2022-09-11T17:21:27.434Z,101254.59
2022-09-11T17:23:53.985Z,101258.50
2022-09-11T17:26:17.971Z,101264.47
2022-09-11T17:28:42.911Z,101265.66
2022-09-11T17:31:10.174Z,101266.50
2022-09-11T17:33:33.867Z,101261.56
2022-09-11T17:35:57.511Z,101272.31
2022-09-11T17:38:21.230Z,101259.03
2022-09-11T17:40:46.250Z,101273.31
2022-09-11T17:43:13.046Z,101267.69
2022-09-11T17:45:36.675Z,101280.13
2022-09-11T17:48:01.168Z,101278.56
2022-09-11T17:50:25.704Z,101273.25
2022-09-11T17:52:50.750Z,101273.63
2022-09-11T17:55:14.359Z,101277.16
2022-09-11T17:57:41.126Z,101277.34
2022-09-11T18:00:06.370Z,101278.84
2022-09-11T18:02:35.539Z,101275.41
2022-09-11T18:04:59.111Z,101275.06
2022-09-11T18:07:22.723Z,101274.56
2022-09-11T18:09:46.978Z,101273.84
2022-09-11T18:12:11.364Z,101271.97
2022-09-11T18:14:38.331Z,101275.19
2022-09-11T18:17:01.842Z,101270.94
2022-09-11T18:19:25.787Z,101278.03
2022-09-11T18:21:50.734Z,101280.38
2022-09-11T18:24:19.799Z,101276.94
2022-09-11T18:26:44.056Z,101275.22
2022-09-11T18:29:11.458Z,101274.69
2022-09-11T18:31:41.601Z,101287.41
2022-09-11T18:34:05.878Z,101289.19
2022-09-11T18:36:31.790Z,101292.94
2022-09-11T18:39:00.018Z,101294.34
2022-09-11T18:41:24.738Z,101285.50
2022-09-11T18:43:48.822Z,101290.94
2022-09-11T18:46:12.635Z,101304.63
2022-09-11T18:48:39.446Z,101300.03
2022-09-11T18:51:07.706Z,101295.72
2022-09-11T18:53:31.375Z,101298.91
2022-09-11T18:56:00.823Z,101300.78
2022-09-11T18:58:24.519Z,101295.81
2022-09-11T19:00:48.103Z,101291.56
2022-09-11T19:03:12.182Z,101292.81
2022-09-11T19:05:37.094Z,101301.09
2022-09-11T19:08:01.803Z,101308.16
2022-09-11T19:10:25.579Z,101305.81
2022-09-11T19:12:50.362Z,101311.66
2022-09-11T19:15:13.910Z,101308.78
2022-09-11T19:17:38.391Z,101318.09
2022-09-11T19:20:02.180Z,101321.72
2022-09-11T19:22:28.084Z,101320.44
2022-09-11T19:24:52.292Z,101329.72
2022-09-11T19:27:15.939Z,101322.03
2022-09-11T19:29:40.020Z,101330.09
2022-09-11T19:32:03.929Z,101334.50
2022-09-11T19:34:27.587Z,101331.84
2022-09-11T19:36:52.070Z,101335.56
2022-09-11T19:39:17.076Z,101336.34
2022-09-11T19:41:41.419Z,101339.50
2022-09-11T19:44:07.251Z,101339.34
2022-09-11T19:46:33.124Z,101344.25
2022-09-11T19:49:00.722Z,101349.72
2022-09-11T19:51:26.702Z,101343.00
2022-09-11T19:53:51.987Z,101353.72
2022-09-11T19:56:17.064Z,101354.91
2022-09-11T19:58:41.054Z,101354.47
2022-09-11T20:01:09.053Z,101351.63
2022-09-11T20:03:32.823Z,101349.22
2022-09-11T20:05:56.391Z,101346.22
2022-09-11T20:08:19.944Z,101351.19
2022-09-11T20:10:45.811Z,101345.66
2022-09-11T20:13:11.008Z,101347.94
2022-09-11T20:15:36.747Z,101351.63
2022-09-11T20:18:00.506Z,101350.09
2022-09-11T20:20:24.155Z,101356.91
2022-09-11T20:22:47.700Z,101350.06
2022-09-11T20:25:12.259Z,101344.50
2022-09-11T20:27:35.927Z,101358.63
2022-09-11T20:30:00.990Z,101362.47
2022-09-11T20:32:24.694Z,101359.19
2022-09-11T20:34:48.278Z,101359.91
2022-09-11T20:37:11.773Z,101366.34
2022-09-11T20:39:35.347Z,101355.63
2022-09-11T20:42:00.633Z,101354.78
2022-09-11T20:44:25.123Z,101356.75
2022-09-11T20:46:50.072Z,101348.78
2022-09-11T20:49:13.823Z,101350.66
2022-09-11T20:51:37.663Z,101358.06
2022-09-11T20:54:01.268Z,101357.50
2022-09-11T20:56:25.094Z,101362.91
2022-09-11T20:58:49.159Z,101361.19
2022-09-11T21:01:16.741Z,101363.91
2022-09-11T21:03:46.586Z,101356.75
2022-09-11T21:06:10.727Z,101363.31
2022-09-11T21:08:34.299Z,101357.63
2022-09-11T21:11:02.834Z,101357.34
2022-09-11T21:13:26.414Z,101357.22
2022-09-11T21:15:50.128Z,101354.06
2022-09-11T21:18:14.484Z,101360.50
2022-09-11T21:20:39.994Z,101354.34
2022-09-11T21:23:03.693Z,101354.34
2022-09-11T21:25:28.183Z,101357.22
2022-09-11T21:27:51.719Z,101356.50
2022-09-11T21:30:15.618Z,101358.34
2022-09-11T21:32:39.139Z,101364.19
2022-09-11T21:35:02.685Z,101349.22
2022-09-11T21:37:27.611Z,101351.66
2022-09-11T21:39:51.595Z,101357.50
2022-09-11T21:42:15.172Z,101351.50
2022-09-11T21:44:38.706Z,101358.34
2022-09-11T21:47:02.295Z,101362.03
2022-09-11T21:49:25.935Z,101360.31
2022-09-11T21:51:49.471Z,101359.75
2022-09-11T21:54:14.616Z,101359.31
2022-09-11T21:56:38.147Z,101365.72
2022-09-11T21:59:02.311Z,101363.91
2022-09-11T22:01:27.458Z,101354.22
2022-09-11T22:03:51.497Z,101357.91
2022-09-11T22:06:15.490Z,101348.22
2022-09-11T22:08:41.032Z,101350.94
2022-09-11T22:11:06.895Z,101355.78
2022-09-11T22:13:30.876Z,101360.88
2022-09-11T22:15:54.467Z,101355.94
2022-09-11T22:18:20.018Z,101351.09
2022-09-11T22:20:43.915Z,101358.34
2022-09-11T22:23:07.578Z,101358.19
2022-09-11T22:25:31.255Z,101362.19
2022-09-11T22:27:56.738Z,101362.19
2022-09-11T22:30:20.471Z,101367.44
2022-09-11T22:32:44.035Z,101363.91
2022-09-11T22:35:08.384Z,101360.19
2022-09-11T22:37:31.965Z,101368.59
2022-09-11T22:39:55.565Z,101357.75
2022-09-11T22:42:19.110Z,101353.75
2022-09-11T22:44:44.034Z,101357.34
2022-09-11T22:47:07.602Z,101357.19
2022-09-11T22:49:31.151Z,101354.63
2022-09-11T22:51:54.803Z,101358.50
2022-09-11T22:54:18.407Z,101357.50
2022-09-11T22:56:41.968Z,101364.59
2022-09-11T22:59:05.518Z,101357.47
2022-09-11T23:01:30.495Z,101356.19
2022-09-11T23:03:54.898Z,101361.44
2022-09-11T23:06:36.456Z,101354.59
2022-09-11T23:09:01.903Z,101360.72
2022-09-11T23:11:25.781Z,101353.00
2022-09-11T23:13:50.413Z,101354.72
2022-09-11T23:16:15.821Z,101359.81
2022-09-11T23:18:40.800Z,101355.81
2022-09-11T23:21:04.542Z,101360.34
2022-09-11T23:23:28.101Z,101363.16
2022-09-11T23:25:52.007Z,101360.47
2022-09-11T23:28:15.658Z,101357.63
2022-09-11T23:30:40.027Z,101349.63
2022-09-11T23:33:03.566Z,101358.13
2022-09-11T23:35:28.442Z,101352.88
2022-09-11T23:37:52.054Z,101352.97
2022-09-11T23:40:15.672Z,101342.41
2022-09-11T23:42:39.351Z,101342.06
2022-09-11T23:45:02.891Z,101340.50
2022-09-11T23:47:26.506Z,101342.63
2022-09-11T23:49:50.014Z,101343.91
2022-09-11T23:52:15.103Z,101346.84
2022-09-11T23:54:38.631Z,101350.81
2022-09-11T23:57:02.382Z,101344.34
2022-09-11T23:59:25.938Z,101343.66
